Export, PA (15632)

9:00 AM EST on February 14, 2016 (GMT -0500)
Wellington Estates | | Change Station
CLOSE
Current Station
Personal Weather Station
Location: Export, PA
Elevation: 1286 ft
Nearby Weather Stations
Active Advisory: Winter Weather Statement

Elev 1286 ft 40.45 °N, 79.59 °W | Updated 5 seconds ago

Mostly Cloudy
Mostly Cloudy
7.5 °F
Feels Like 8 °F
N
0.8
Wind Variable Wind from SE
Gusts 1.6 mph

Today
High -- | Low -- °F
--% Chance of Precip.
Yesterday
High -- | Low -- °F
Precip. -- in
Pressure 30.46 in
Visibility 8.0 miles
Clouds Clear
Windchill 8 °F
Dew Point -6 °F
Humidity 53%
Rainfall 0.00 in
Snow Depth Not available.
7:13 AM 5:52 PM
Waxing Crescent, 42% visible
METAR KLBE 141345Z 00000KT 8SM SKC M18/M19 A3046
Pressure 30.46 in
Visibility 8.0 miles
Clouds Clear
Windchill 8 °F
Dew Point -6 °F
Humidity 53%
Rainfall 0.00 in
Snow Depth Not available.
7:13 AM 5:52 PM
Waxing Crescent, 42% visible
METAR KLBE 141345Z 00000KT 8SM SKC M18/M19 A3046

10-Day Weather Forecast

Almanac

Astronomy

Feb. 14, 2016 Rise Set
Actual Time
Civil Twilight
Nautical Twilight
Astronomical Twilight
Moon
Length of Visible Light
Length of Day
Tomorrow will be .
, % of the Moon is Illuminated

Today's Extremes

State Highs State Lows

Community

WunderPhotos

Upload Photos

1,892,793 photos uploaded!

WunderBlog® & News

Nearby

Air Quality

  Air Quality AQ Index Pollutant
Not available.

Snow Depth

Station Depth Elevation

Earthquake Activity

City Distance Mag. Time & Date
Minimum magnitude displayed is 2.5.

Coastal Water Temperatures

Place Temperature

Stations

Nearby Weather Stations

Station Location Temp. Windchill Dew Point Humidity Wind Precip. Elev Updated Type
                   

Watches & Warnings

Winter Weather Statement
Issued: 8:56 AM EST Feb. 14, 2016 – National Weather Service

... Wind Chill Advisory will expire at 9 am EST this morning...

Winds are generally 5 mph or less currently... and wind chill
values are mostly 5 below or warmer. Temperatures are starting to
warm as well. Thus... the Wind Chill Advisory will be allowed to
expire.